高雄國際航空站 - 高雄掃描席

METAR RCKH 011600Z 32005KT 9999 FEW016 SCT040 22/17 Q1016 NOSIG RMK A3001=

站台狀態:Online
最後更新:2022-12-02 00:30:02